createdAt,value
2023-03-12T00:00:49.610Z,17.00
2023-03-12T00:10:51.246Z,16.17
2023-03-12T00:20:54.308Z,15.17
2023-03-12T00:30:57.230Z,12.47
2023-03-12T00:40:58.864Z,11.57
2023-03-12T00:51:00.400Z,10.87
2023-03-12T01:01:02.208Z,10.88
2023-03-12T01:11:04.146Z,11.80
2023-03-12T01:21:05.987Z,12.13
2023-03-12T01:31:09.476Z,12.87
2023-03-12T01:41:11.147Z,12.03
2023-03-12T01:51:14.963Z,11.90
2023-03-12T02:01:18.616Z,11.00
2023-03-12T02:11:20.165Z,10.03
2023-03-12T02:21:28.525Z,9.40
2023-03-12T02:31:37.198Z,9.30
2023-03-12T02:41:44.601Z,10.63
2023-03-12T02:51:47.442Z,10.60
2023-03-12T03:01:56.012Z,11.40
2023-03-12T03:11:57.511Z,9.10
2023-03-12T03:21:59.158Z,9.77
2023-03-12T03:32:00.690Z,8.80
2023-03-12T03:42:02.566Z,8.70
2023-03-12T03:52:04.278Z,7.83
2023-03-12T04:02:07.006Z,7.27
2023-03-12T04:12:08.626Z,7.47
2023-03-12T04:22:10.575Z,8.55
2023-03-12T04:32:12.141Z,8.03
2023-03-12T04:42:13.972Z,8.57
2023-03-12T04:52:15.557Z,8.97
2023-03-12T05:02:17.074Z,9.23
2023-03-12T05:12:18.587Z,8.95
2023-03-12T05:22:20.140Z,8.87
2023-03-12T05:32:21.764Z,7.60
2023-03-12T05:42:24.859Z,7.37
2023-03-12T05:52:26.401Z,6.67
2023-03-12T06:02:27.926Z,5.32
2023-03-12T06:12:29.432Z,6.00
2023-03-12T06:22:31.104Z,5.50
2023-03-12T06:32:32.769Z,4.90
2023-03-12T06:42:34.360Z,3.87
2023-03-12T06:52:35.922Z,3.90
2023-03-12T07:02:37.554Z,3.90
2023-03-12T07:12:39.111Z,3.90
2023-03-12T07:22:40.805Z,4.63
2023-03-12T07:32:42.390Z,4.03
2023-03-12T07:42:43.941Z,4.38
2023-03-12T07:52:46.880Z,3.90
2023-03-12T08:02:48.572Z,4.40
2023-03-12T08:12:50.217Z,3.90
2023-03-12T08:22:51.955Z,3.00
2023-03-12T08:32:53.536Z,3.45
2023-03-12T08:42:55.073Z,2.97
2023-03-12T08:52:56.840Z,3.10
2023-03-12T09:02:58.386Z,3.00
2023-03-12T09:13:02.082Z,2.97
2023-03-12T09:23:03.611Z,2.90
2023-03-12T09:33:05.182Z,2.43
2023-03-12T09:43:13.873Z,2.40
2023-03-12T09:53:31.174Z,2.20
2023-03-12T10:03:38.827Z,2.93
2023-03-12T10:13:58.492Z,2.35
2023-03-12T10:24:28.891Z,3.07
2023-03-12T10:34:56.248Z,2.30
2023-03-12T10:45:06.872Z,2.70
2023-03-12T10:55:29.669Z,3.00
2023-03-12T11:05:47.486Z,3.92
2023-03-12T11:15:49.365Z,3.90
2023-03-12T11:25:53.895Z,3.37
2023-03-12T11:36:23.921Z,3.83
2023-03-12T11:46:34.821Z,3.63
2023-03-12T11:56:41.016Z,3.38
2023-03-12T12:07:21.053Z,3.37
2023-03-12T12:17:30.066Z,3.13
2023-03-12T12:27:38.830Z,3.30
2023-03-12T12:37:43.134Z,3.43
2023-03-12T12:48:06.428Z,3.53
2023-03-12T12:58:15.249Z,3.37
2023-03-12T13:08:41.683Z,3.47
2023-03-12T13:19:15.713Z,3.90
2023-03-12T13:29:37.154Z,4.17
2023-03-12T13:39:38.804Z,3.85
2023-03-12T13:49:46.507Z,4.27
2023-03-12T13:59:50.315Z,4.13
2023-03-12T14:10:21.244Z,4.60
2023-03-12T14:20:23.727Z,4.10
2023-03-12T14:31:04.071Z,3.60
2023-03-12T14:41:15.648Z,3.73
2023-03-12T14:51:29.902Z,3.80
2023-03-12T15:01:33.191Z,3.77
2023-03-12T15:11:37.182Z,3.20
2023-03-12T15:21:39.439Z,3.08
2023-03-12T15:31:46.676Z,3.40
2023-03-12T15:41:49.268Z,3.37
2023-03-12T15:52:02.724Z,3.20
2023-03-12T16:02:04.472Z,3.20
2023-03-12T16:12:06.426Z,3.38
2023-03-12T16:22:08.024Z,3.00
2023-03-12T16:32:14.792Z,2.97
2023-03-12T16:42:18.344Z,2.50
2023-03-12T16:52:23.272Z,2.73
2023-03-12T17:02:25.086Z,2.20
2023-03-12T17:12:38.675Z,2.97
2023-03-12T17:22:40.840Z,2.47
2023-03-12T17:32:42.481Z,3.57
2023-03-12T17:42:44.234Z,2.87
2023-03-12T17:52:46.116Z,2.97
2023-03-12T18:02:47.869Z,2.83
2023-03-12T18:12:49.508Z,1.30
2023-03-12T18:22:51.223Z,2.00
2023-03-12T18:32:52.961Z,1.87
2023-03-12T18:42:57.651Z,2.00
2023-03-12T18:52:59.254Z,2.03
2023-03-12T19:03:00.959Z,2.00
2023-03-12T19:13:02.655Z,1.73
2023-03-12T19:23:04.379Z,1.13
2023-03-12T19:33:06.323Z,1.67
2023-03-12T19:43:08.100Z,1.77
2023-03-12T19:53:09.732Z,3.03
2023-03-12T20:03:11.393Z,2.70
2023-03-12T20:13:13.769Z,4.00
2023-03-12T20:23:15.341Z,3.35
2023-03-12T20:33:17.120Z,2.77
2023-03-12T20:43:18.719Z,2.20
2023-03-12T20:53:20.285Z,2.67
2023-03-12T21:03:21.857Z,3.07
2023-03-12T21:13:23.545Z,3.47
2023-03-12T21:23:25.215Z,3.27
2023-03-12T21:33:26.973Z,2.90
2023-03-12T21:43:29.322Z,2.93
2023-03-12T21:53:31.020Z,3.53
2023-03-12T22:03:33.114Z,2.92
2023-03-12T22:13:35.195Z,2.53
2023-03-12T22:23:37.169Z,3.00
2023-03-12T22:33:38.780Z,3.47
2023-03-12T22:43:40.524Z,3.90
2023-03-12T22:53:42.107Z,3.63
2023-03-12T23:03:45.122Z,4.07
2023-03-12T23:13:47.254Z,4.00
2023-03-12T23:23:50.090Z,3.77
2023-03-12T23:33:51.714Z,3.87
2023-03-12T23:43:53.617Z,4.38
2023-03-12T23:53:58.200Z,4.37
